Terminal Aerodrome Forecast
Issued by NWS

Home | Current Version | Previous Version | Text Only | Print | Product List | Glossary On
Versions: 1 2 3 4 5 6 7 8 9 10 11 12 13
638
FTUS42 TJSJ 250529
TAFJBQ
TAF
TJBQ 250529Z 2506/2606 16004KT P6SM VCSH SCT025 BKN040 BKN070
     FM250900 00000KT P6SM FEW028 FEW050 SCT080
     FM251400 06010KT P6SM FEW035 SCT050
     FM251830 08008KT P6SM VCSH SCT025 BKN050
      AMD NOT SKED TIL 251100=

USA.gov is the U.S. government's official web portal to all federal, state and local government web resources and services.